sensor_id;sensor_type;location;lat;lon;timestamp;temperature;humidity
20284;DHT22;10301;50.832;4.080;2023-12-07T00:01:58;3.80;99.90
20284;DHT22;10301;50.832;4.080;2023-12-07T00:04:24;3.70;99.90
20284;DHT22;10301;50.832;4.080;2023-12-07T00:06:49;3.50;99.90
20284;DHT22;10301;50.832;4.080;2023-12-07T00:09:15;3.60;99.90
20284;DHT22;10301;50.832;4.080;2023-12-07T00:11:40;3.70;99.90
20284;DHT22;10301;50.832;4.080;2023-12-07T00:14:06;3.70;99.90
20284;DHT22;10301;50.832;4.080;2023-12-07T00:16:32;3.90;99.90
20284;DHT22;10301;50.832;4.080;2023-12-07T00:18:57;4.10;99.90
20284;DHT22;10301;50.832;4.080;2023-12-07T00:21:23;4.50;99.90
20284;DHT22;10301;50.832;4.080;2023-12-07T00:23:49;4.60;99.90
20284;DHT22;10301;50.832;4.080;2023-12-07T00:26:14;4.70;99.90
20284;DHT22;10301;50.832;4.080;2023-12-07T00:28:40;4.70;99.90
20284;DHT22;10301;50.832;4.080;2023-12-07T00:31:06;5.00;99.90
20284;DHT22;10301;50.832;4.080;2023-12-07T00:33:31;4.90;99.90
20284;DHT22;10301;50.832;4.080;2023-12-07T00:35:57;5.00;99.90
20284;DHT22;10301;50.832;4.080;2023-12-07T00:38:22;5.00;99.90
20284;DHT22;10301;50.832;4.080;2023-12-07T00:40:48;4.90;99.90
20284;DHT22;10301;50.832;4.080;2023-12-07T00:43:14;4.90;99.90
20284;DHT22;10301;50.832;4.080;2023-12-07T00:45:39;4.90;99.90
20284;DHT22;10301;50.832;4.080;2023-12-07T00:48:05;4.60;99.90
20284;DHT22;10301;50.832;4.080;2023-12-07T00:50:31;4.50;99.90
20284;DHT22;10301;50.832;4.080;2023-12-07T00:52:56;4.70;99.90
20284;DHT22;10301;50.832;4.080;2023-12-07T00:55:22;4.60;99.90
20284;DHT22;10301;50.832;4.080;2023-12-07T00:57:47;4.50;99.90
20284;DHT22;10301;50.832;4.080;2023-12-07T01:00:13;4.80;99.90
20284;DHT22;10301;50.832;4.080;2023-12-07T01:02:39;4.80;99.90
20284;DHT22;10301;50.832;4.080;2023-12-07T01:05:05;4.30;99.90
20284;DHT22;10301;50.832;4.080;2023-12-07T01:07:31;4.10;99.90
20284;DHT22;10301;50.832;4.080;2023-12-07T01:09:56;4.10;99.90
20284;DHT22;10301;50.832;4.080;2023-12-07T01:12:22;4.30;99.90
20284;DHT22;10301;50.832;4.080;2023-12-07T01:14:48;4.60;99.90
20284;DHT22;10301;50.832;4.080;2023-12-07T01:17:14;4.80;99.90
20284;DHT22;10301;50.832;4.080;2023-12-07T01:19:39;4.60;99.90
20284;DHT22;10301;50.832;4.080;2023-12-07T01:22:05;4.20;99.90
20284;DHT22;10301;50.832;4.080;2023-12-07T01:24:30;4.00;99.90
20284;DHT22;10301;50.832;4.080;2023-12-07T01:26:56;4.00;99.90
20284;DHT22;10301;50.832;4.080;2023-12-07T01:29:22;3.80;99.90
20284;DHT22;10301;50.832;4.080;2023-12-07T01:31:47;3.80;99.90
20284;DHT22;10301;50.832;4.080;2023-12-07T01:34:14;4.00;99.90
20284;DHT22;10301;50.832;4.080;2023-12-07T01:36:40;4.00;99.90
20284;DHT22;10301;50.832;4.080;2023-12-07T01:39:05;4.00;99.90
20284;DHT22;10301;50.832;4.080;2023-12-07T01:41:31;4.30;99.90
20284;DHT22;10301;50.832;4.080;2023-12-07T01:43:57;4.30;99.90
20284;DHT22;10301;50.832;4.080;2023-12-07T01:46:23;4.20;99.90
20284;DHT22;10301;50.832;4.080;2023-12-07T01:48:48;4.00;99.90
20284;DHT22;10301;50.832;4.080;2023-12-07T01:51:15;4.00;99.90
20284;DHT22;10301;50.832;4.080;2023-12-07T01:53:41;4.40;99.90
20284;DHT22;10301;50.832;4.080;2023-12-07T01:56:08;4.50;99.90
20284;DHT22;10301;50.832;4.080;2023-12-07T01:58:34;4.70;99.90
20284;DHT22;10301;50.832;4.080;2023-12-07T02:01:01;5.00;99.90
20284;DHT22;10301;50.832;4.080;2023-12-07T02:03:27;4.70;99.90
20284;DHT22;10301;50.832;4.080;2023-12-07T02:05:55;5.00;99.90
20284;DHT22;10301;50.832;4.080;2023-12-07T02:08:22;4.90;99.90
20284;DHT22;10301;50.832;4.080;2023-12-07T02:10:47;5.00;99.90
20284;DHT22;10301;50.832;4.080;2023-12-07T02:13:13;5.10;99.90
20284;DHT22;10301;50.832;4.080;2023-12-07T02:15:39;4.90;99.90
20284;DHT22;10301;50.832;4.080;2023-12-07T02:18:19;4.90;99.90
20284;DHT22;10301;50.832;4.080;2023-12-07T02:23:42;4.60;99.90
20284;DHT22;10301;50.832;4.080;2023-12-07T02:26:10;4.60;99.90
20284;DHT22;10301;50.832;4.080;2023-12-07T02:28:36;4.90;99.90
20284;DHT22;10301;50.832;4.080;2023-12-07T02:31:03;4.80;99.90
20284;DHT22;10301;50.832;4.080;2023-12-07T02:33:28;5.10;99.90
20284;DHT22;10301;50.832;4.080;2023-12-07T02:35:54;5.20;99.90
20284;DHT22;10301;50.832;4.080;2023-12-07T02:38:22;5.30;99.90
20284;DHT22;10301;50.832;4.080;2023-12-07T02:40:51;5.40;99.90
20284;DHT22;10301;50.832;4.080;2023-12-07T02:43:18;5.60;99.90
20284;DHT22;10301;50.832;4.080;2023-12-07T02:45:43;5.80;99.90
20284;DHT22;10301;50.832;4.080;2023-12-07T02:48:09;5.70;99.90
20284;DHT22;10301;50.832;4.080;2023-12-07T02:50:35;5.50;99.90
20284;DHT22;10301;50.832;4.080;2023-12-07T02:53:01;5.60;99.90
20284;DHT22;10301;50.832;4.080;2023-12-07T02:55:26;5.60;99.90
20284;DHT22;10301;50.832;4.080;2023-12-07T02:57:52;5.60;99.90
20284;DHT22;10301;50.832;4.080;2023-12-07T03:00:18;5.70;99.90
20284;DHT22;10301;50.832;4.080;2023-12-07T03:02:43;5.70;99.90
20284;DHT22;10301;50.832;4.080;2023-12-07T03:05:09;5.80;99.90
20284;DHT22;10301;50.832;4.080;2023-12-07T03:07:35;5.80;99.90
20284;DHT22;10301;50.832;4.080;2023-12-07T03:10:00;5.80;99.90
20284;DHT22;10301;50.832;4.080;2023-12-07T03:12:26;5.40;99.90
20284;DHT22;10301;50.832;4.080;2023-12-07T03:14:52;5.30;99.90
20284;DHT22;10301;50.832;4.080;2023-12-07T03:17:17;5.30;99.90
20284;DHT22;10301;50.832;4.080;2023-12-07T03:19:43;5.30;99.90
20284;DHT22;10301;50.832;4.080;2023-12-07T03:22:09;5.20;99.90
20284;DHT22;10301;50.832;4.080;2023-12-07T03:24:36;5.10;99.90
20284;DHT22;10301;50.832;4.080;2023-12-07T03:27:02;4.80;99.90
20284;DHT22;10301;50.832;4.080;2023-12-07T03:29:28;4.60;99.90
20284;DHT22;10301;50.832;4.080;2023-12-07T03:31:53;4.50;99.90
20284;DHT22;10301;50.832;4.080;2023-12-07T03:34:19;4.30;99.90
20284;DHT22;10301;50.832;4.080;2023-12-07T03:36:48;4.20;99.90
20284;DHT22;10301;50.832;4.080;2023-12-07T03:39:15;4.20;99.90
20284;DHT22;10301;50.832;4.080;2023-12-07T03:41:41;4.20;99.90
20284;DHT22;10301;50.832;4.080;2023-12-07T03:44:07;4.40;99.90
20284;DHT22;10301;50.832;4.080;2023-12-07T03:46:33;4.60;99.90
20284;DHT22;10301;50.832;4.080;2023-12-07T03:48:58;4.90;99.90
20284;DHT22;10301;50.832;4.080;2023-12-07T03:51:26;5.20;99.90
20284;DHT22;10301;50.832;4.080;2023-12-07T03:53:53;5.40;99.90
20284;DHT22;10301;50.832;4.080;2023-12-07T03:56:27;5.40;99.90
20284;DHT22;10301;50.832;4.080;2023-12-07T03:58:54;5.20;99.90
20284;DHT22;10301;50.832;4.080;2023-12-07T04:01:23;5.00;99.90
20284;DHT22;10301;50.832;4.080;2023-12-07T04:03:50;5.30;99.90
20284;DHT22;10301;50.832;4.080;2023-12-07T04:06:16;5.30;99.90
20284;DHT22;10301;50.832;4.080;2023-12-07T04:08:42;5.60;99.90
20284;DHT22;10301;50.832;4.080;2023-12-07T04:11:08;5.60;99.90
20284;DHT22;10301;50.832;4.080;2023-12-07T04:13:33;5.40;99.90
20284;DHT22;10301;50.832;4.080;2023-12-07T04:15:59;5.40;99.90
20284;DHT22;10301;50.832;4.080;2023-12-07T04:18:24;5.50;99.90
20284;DHT22;10301;50.832;4.080;2023-12-07T04:20:50;5.60;99.90
20284;DHT22;10301;50.832;4.080;2023-12-07T04:23:16;5.40;99.90
20284;DHT22;10301;50.832;4.080;2023-12-07T04:25:41;5.30;99.90
20284;DHT22;10301;50.832;4.080;2023-12-07T04:28:07;5.40;99.90
20284;DHT22;10301;50.832;4.080;2023-12-07T04:30:33;5.40;99.90
20284;DHT22;10301;50.832;4.080;2023-12-07T04:32:58;5.30;99.90
20284;DHT22;10301;50.832;4.080;2023-12-07T04:35:24;5.30;99.90
20284;DHT22;10301;50.832;4.080;2023-12-07T04:37:49;5.10;99.90
20284;DHT22;10301;50.832;4.080;2023-12-07T04:40:15;5.20;99.90
20284;DHT22;10301;50.832;4.080;2023-12-07T04:42:41;5.20;99.90
20284;DHT22;10301;50.832;4.080;2023-12-07T04:45:07;5.10;99.90
20284;DHT22;10301;50.832;4.080;2023-12-07T04:47:33;4.90;99.90
20284;DHT22;10301;50.832;4.080;2023-12-07T04:49:59;4.80;99.90
20284;DHT22;10301;50.832;4.080;2023-12-07T04:52:25;4.90;99.90
20284;DHT22;10301;50.832;4.080;2023-12-07T04:54:50;5.00;99.90
20284;DHT22;10301;50.832;4.080;2023-12-07T04:57:16;4.60;99.90
20284;DHT22;10301;50.832;4.080;2023-12-07T04:59:42;4.30;99.90
20284;DHT22;10301;50.832;4.080;2023-12-07T05:02:15;4.10;99.90
20284;DHT22;10301;50.832;4.080;2023-12-07T05:04:42;4.10;99.90
20284;DHT22;10301;50.832;4.080;2023-12-07T05:07:08;4.20;99.90
20284;DHT22;10301;50.832;4.080;2023-12-07T05:09:34;4.10;99.90
20284;DHT22;10301;50.832;4.080;2023-12-07T05:12:00;4.20;99.90
20284;DHT22;10301;50.832;4.080;2023-12-07T05:14:26;3.90;99.90
20284;DHT22;10301;50.832;4.080;2023-12-07T05:16:51;3.70;99.90
20284;DHT22;10301;50.832;4.080;2023-12-07T05:19:24;3.80;99.90
20284;DHT22;10301;50.832;4.080;2023-12-07T05:21:50;3.80;99.90
20284;DHT22;10301;50.832;4.080;2023-12-07T05:24:16;3.90;99.90
20284;DHT22;10301;50.832;4.080;2023-12-07T05:26:42;4.00;99.90
20284;DHT22;10301;50.832;4.080;2023-12-07T05:29:08;4.00;99.90
20284;DHT22;10301;50.832;4.080;2023-12-07T05:31:35;4.20;99.90
20284;DHT22;10301;50.832;4.080;2023-12-07T05:34:02;4.00;99.90
20284;DHT22;10301;50.832;4.080;2023-12-07T05:36:28;3.90;99.90
20284;DHT22;10301;50.832;4.080;2023-12-07T05:38:53;4.10;99.90
20284;DHT22;10301;50.832;4.080;2023-12-07T05:41:19;4.10;99.90
20284;DHT22;10301;50.832;4.080;2023-12-07T05:43:44;4.30;99.90
20284;DHT22;10301;50.832;4.080;2023-12-07T05:46:10;4.20;99.90
20284;DHT22;10301;50.832;4.080;2023-12-07T05:48:36;4.20;99.90
20284;DHT22;10301;50.832;4.080;2023-12-07T05:51:02;4.00;99.90
20284;DHT22;10301;50.832;4.080;2023-12-07T05:53:28;3.90;99.90
20284;DHT22;10301;50.832;4.080;2023-12-07T05:55:57;4.00;99.90
20284;DHT22;10301;50.832;4.080;2023-12-07T05:58:22;4.00;99.90
20284;DHT22;10301;50.832;4.080;2023-12-07T06:00:48;3.90;99.90
20284;DHT22;10301;50.832;4.080;2023-12-07T06:03:15;3.70;99.90
20284;DHT22;10301;50.832;4.080;2023-12-07T06:05:41;3.80;99.90
20284;DHT22;10301;50.832;4.080;2023-12-07T06:08:07;3.70;99.90
20284;DHT22;10301;50.832;4.080;2023-12-07T06:10:33;3.70;99.90
20284;DHT22;10301;50.832;4.080;2023-12-07T06:12:59;3.90;99.90
20284;DHT22;10301;50.832;4.080;2023-12-07T06:15:26;3.80;99.90
20284;DHT22;10301;50.832;4.080;2023-12-07T06:17:53;3.90;99.90
20284;DHT22;10301;50.832;4.080;2023-12-07T06:20:19;3.80;99.90
20284;DHT22;10301;50.832;4.080;2023-12-07T06:22:45;3.60;99.90
20284;DHT22;10301;50.832;4.080;2023-12-07T06:25:11;3.80;99.90
20284;DHT22;10301;50.832;4.080;2023-12-07T06:27:38;3.90;99.90
20284;DHT22;10301;50.832;4.080;2023-12-07T06:30:05;4.00;99.90
20284;DHT22;10301;50.832;4.080;2023-12-07T06:32:32;4.00;99.90
20284;DHT22;10301;50.832;4.080;2023-12-07T06:34:58;4.10;99.90
20284;DHT22;10301;50.832;4.080;2023-12-07T06:37:23;4.20;99.90
20284;DHT22;10301;50.832;4.080;2023-12-07T06:39:49;4.30;99.90
20284;DHT22;10301;50.832;4.080;2023-12-07T06:42:15;4.30;99.90
20284;DHT22;10301;50.832;4.080;2023-12-07T06:44:43;4.30;99.90
20284;DHT22;10301;50.832;4.080;2023-12-07T06:47:08;4.00;99.90
20284;DHT22;10301;50.832;4.080;2023-12-07T06:49:35;4.10;99.90
20284;DHT22;10301;50.832;4.080;2023-12-07T06:52:01;4.10;99.90
20284;DHT22;10301;50.832;4.080;2023-12-07T06:54:27;4.10;99.90
20284;DHT22;10301;50.832;4.080;2023-12-07T06:56:52;4.20;99.90
20284;DHT22;10301;50.832;4.080;2023-12-07T06:59:19;4.00;99.90
20284;DHT22;10301;50.832;4.080;2023-12-07T07:01:45;4.00;99.90
20284;DHT22;10301;50.832;4.080;2023-12-07T07:04:11;4.10;99.90
20284;DHT22;10301;50.832;4.080;2023-12-07T07:06:38;4.00;99.90
20284;DHT22;10301;50.832;4.080;2023-12-07T07:09:03;3.70;99.90
20284;DHT22;10301;50.832;4.080;2023-12-07T07:11:30;3.70;99.90
20284;DHT22;10301;50.832;4.080;2023-12-07T07:13:56;3.60;99.90
20284;DHT22;10301;50.832;4.080;2023-12-07T07:16:21;3.50;99.90
20284;DHT22;10301;50.832;4.080;2023-12-07T07:18:47;3.40;99.90
20284;DHT22;10301;50.832;4.080;2023-12-07T07:21:13;3.30;99.90
20284;DHT22;10301;50.832;4.080;2023-12-07T07:23:38;3.20;99.90
20284;DHT22;10301;50.832;4.080;2023-12-07T07:26:04;3.30;99.90
20284;DHT22;10301;50.832;4.080;2023-12-07T07:28:30;3.40;99.90
20284;DHT22;10301;50.832;4.080;2023-12-07T07:30:56;3.50;99.90
20284;DHT22;10301;50.832;4.080;2023-12-07T07:33:21;3.60;99.90
20284;DHT22;10301;50.832;4.080;2023-12-07T07:35:47;3.50;99.90
20284;DHT22;10301;50.832;4.080;2023-12-07T07:38:12;3.60;99.90
20284;DHT22;10301;50.832;4.080;2023-12-07T07:40:39;3.50;99.90
20284;DHT22;10301;50.832;4.080;2023-12-07T07:43:05;3.60;99.90
20284;DHT22;10301;50.832;4.080;2023-12-07T07:45:31;3.70;99.90
20284;DHT22;10301;50.832;4.080;2023-12-07T07:47:56;3.70;99.90
20284;DHT22;10301;50.832;4.080;2023-12-07T07:50:22;3.60;99.90
20284;DHT22;10301;50.832;4.080;2023-12-07T07:52:48;3.60;99.90
20284;DHT22;10301;50.832;4.080;2023-12-07T07:55:13;3.70;99.90
20284;DHT22;10301;50.832;4.080;2023-12-07T07:57:39;3.70;99.90
20284;DHT22;10301;50.832;4.080;2023-12-07T08:00:05;3.90;99.90
20284;DHT22;10301;50.832;4.080;2023-12-07T08:02:33;3.90;99.90
20284;DHT22;10301;50.832;4.080;2023-12-07T08:04:59;3.90;99.90
20284;DHT22;10301;50.832;4.080;2023-12-07T08:07:25;3.90;99.90
20284;DHT22;10301;50.832;4.080;2023-12-07T08:09:51;4.00;99.90
20284;DHT22;10301;50.832;4.080;2023-12-07T08:12:16;3.90;99.90
20284;DHT22;10301;50.832;4.080;2023-12-07T08:14:42;3.90;99.90
20284;DHT22;10301;50.832;4.080;2023-12-07T08:17:09;3.80;99.90
20284;DHT22;10301;50.832;4.080;2023-12-07T08:19:35;3.90;99.90
20284;DHT22;10301;50.832;4.080;2023-12-07T08:22:00;4.10;99.90
20284;DHT22;10301;50.832;4.080;2023-12-07T08:24:26;4.20;99.90
20284;DHT22;10301;50.832;4.080;2023-12-07T08:26:52;4.30;99.90
20284;DHT22;10301;50.832;4.080;2023-12-07T08:29:18;4.20;99.90
20284;DHT22;10301;50.832;4.080;2023-12-07T08:31:43;4.30;99.90
20284;DHT22;10301;50.832;4.080;2023-12-07T08:34:09;4.30;99.90
20284;DHT22;10301;50.832;4.080;2023-12-07T08:36:35;4.40;99.90
20284;DHT22;10301;50.832;4.080;2023-12-07T08:39:00;4.40;99.90
20284;DHT22;10301;50.832;4.080;2023-12-07T08:41:26;4.30;99.90
20284;DHT22;10301;50.832;4.080;2023-12-07T08:43:51;4.40;99.90
20284;DHT22;10301;50.832;4.080;2023-12-07T08:46:17;4.20;99.90
20284;DHT22;10301;50.832;4.080;2023-12-07T08:48:43;4.30;99.90
20284;DHT22;10301;50.832;4.080;2023-12-07T08:51:09;4.60;99.90
20284;DHT22;10301;50.832;4.080;2023-12-07T08:53:35;4.60;99.90
20284;DHT22;10301;50.832;4.080;2023-12-07T08:56:03;4.70;99.90
20284;DHT22;10301;50.832;4.080;2023-12-07T08:58:29;4.80;99.90
20284;DHT22;10301;50.832;4.080;2023-12-07T09:00:55;5.00;99.90
20284;DHT22;10301;50.832;4.080;2023-12-07T09:03:21;5.10;99.90
20284;DHT22;10301;50.832;4.080;2023-12-07T09:05:50;5.20;99.90
20284;DHT22;10301;50.832;4.080;2023-12-07T09:08:16;5.10;99.90
20284;DHT22;10301;50.832;4.080;2023-12-07T09:10:42;5.10;99.90
20284;DHT22;10301;50.832;4.080;2023-12-07T09:13:08;5.00;99.90
20284;DHT22;10301;50.832;4.080;2023-12-07T09:15:33;4.90;99.90
20284;DHT22;10301;50.832;4.080;2023-12-07T09:18:03;5.00;99.90
20284;DHT22;10301;50.832;4.080;2023-12-07T09:20:28;5.10;99.90
20284;DHT22;10301;50.832;4.080;2023-12-07T09:22:54;5.30;99.90
20284;DHT22;10301;50.832;4.080;2023-12-07T09:25:22;5.30;99.90
20284;DHT22;10301;50.832;4.080;2023-12-07T09:27:48;5.20;99.90
20284;DHT22;10301;50.832;4.080;2023-12-07T09:30:14;5.20;99.90
20284;DHT22;10301;50.832;4.080;2023-12-07T09:32:40;5.20;99.90
20284;DHT22;10301;50.832;4.080;2023-12-07T09:35:08;5.20;99.90
20284;DHT22;10301;50.832;4.080;2023-12-07T09:37:40;5.10;99.90
20284;DHT22;10301;50.832;4.080;2023-12-07T09:40:06;5.10;99.90
20284;DHT22;10301;50.832;4.080;2023-12-07T09:42:33;5.40;99.90
20284;DHT22;10301;50.832;4.080;2023-12-07T09:44:59;5.40;99.90
20284;DHT22;10301;50.832;4.080;2023-12-07T09:47:28;5.50;99.90
20284;DHT22;10301;50.832;4.080;2023-12-07T09:49:56;5.60;99.90
20284;DHT22;10301;50.832;4.080;2023-12-07T09:52:23;5.50;99.90
20284;DHT22;10301;50.832;4.080;2023-12-07T09:54:50;5.40;99.90
20284;DHT22;10301;50.832;4.080;2023-12-07T09:57:17;5.50;99.90
20284;DHT22;10301;50.832;4.080;2023-12-07T09:59:42;5.50;99.90
20284;DHT22;10301;50.832;4.080;2023-12-07T10:02:08;5.40;99.90
20284;DHT22;10301;50.832;4.080;2023-12-07T10:04:34;5.40;99.90
20284;DHT22;10301;50.832;4.080;2023-12-07T10:06:59;5.40;99.90
20284;DHT22;10301;50.832;4.080;2023-12-07T10:09:26;5.60;99.90
20284;DHT22;10301;50.832;4.080;2023-12-07T10:12:04;5.60;99.90
20284;DHT22;10301;50.832;4.080;2023-12-07T10:14:31;5.70;99.90
20284;DHT22;10301;50.832;4.080;2023-12-07T10:16:57;5.80;99.90
20284;DHT22;10301;50.832;4.080;2023-12-07T10:19:23;5.80;99.90
20284;DHT22;10301;50.832;4.080;2023-12-07T10:21:52;5.60;99.90
20284;DHT22;10301;50.832;4.080;2023-12-07T10:24:20;5.70;99.90
20284;DHT22;10301;50.832;4.080;2023-12-07T10:26:47;5.70;99.90
20284;DHT22;10301;50.832;4.080;2023-12-07T10:29:13;5.80;99.90
20284;DHT22;10301;50.832;4.080;2023-12-07T10:31:40;5.90;99.90
20284;DHT22;10301;50.832;4.080;2023-12-07T10:34:06;5.90;99.90
20284;DHT22;10301;50.832;4.080;2023-12-07T10:36:32;5.90;99.90
20284;DHT22;10301;50.832;4.080;2023-12-07T10:39:00;5.90;99.90
20284;DHT22;10301;50.832;4.080;2023-12-07T10:41:26;5.90;99.90
20284;DHT22;10301;50.832;4.080;2023-12-07T10:44:01;5.70;99.90
20284;DHT22;10301;50.832;4.080;2023-12-07T10:46:29;5.80;99.90
20284;DHT22;10301;50.832;4.080;2023-12-07T10:49:04;6.00;99.90
20284;DHT22;10301;50.832;4.080;2023-12-07T10:52:00;6.00;99.90
20284;DHT22;10301;50.832;4.080;2023-12-07T10:54:33;6.10;99.90
20284;DHT22;10301;50.832;4.080;2023-12-07T10:57:03;5.90;99.90
20284;DHT22;10301;50.832;4.080;2023-12-07T10:59:32;6.00;99.90
20284;DHT22;10301;50.832;4.080;2023-12-07T11:02:00;6.10;99.90
20284;DHT22;10301;50.832;4.080;2023-12-07T11:04:26;6.00;99.90
20284;DHT22;10301;50.832;4.080;2023-12-07T11:06:54;6.00;99.90
20284;DHT22;10301;50.832;4.080;2023-12-07T11:09:30;6.20;99.90
20284;DHT22;10301;50.832;4.080;2023-12-07T11:12:19;6.40;99.90
20284;DHT22;10301;50.832;4.080;2023-12-07T11:14:47;6.50;99.20
20284;DHT22;10301;50.832;4.080;2023-12-07T11:17:15;6.60;97.40
20284;DHT22;10301;50.832;4.080;2023-12-07T11:22:10;6.60;96.90
20284;DHT22;10301;50.832;4.080;2023-12-07T11:24:36;6.70;94.60
20284;DHT22;10301;50.832;4.080;2023-12-07T11:27:02;6.70;92.30
20284;DHT22;10301;50.832;4.080;2023-12-07T11:29:31;6.80;92.50
20284;DHT22;10301;50.832;4.080;2023-12-07T11:32:01;7.00;90.30
20284;DHT22;10301;50.832;4.080;2023-12-07T11:34:42;6.90;83.80
20284;DHT22;10301;50.832;4.080;2023-12-07T11:37:15;6.60;90.20
20284;DHT22;10301;50.832;4.080;2023-12-07T11:39:42;6.70;91.10
20284;DHT22;10301;50.832;4.080;2023-12-07T11:42:20;6.90;86.10
20284;DHT22;10301;50.832;4.080;2023-12-07T11:44:50;7.10;76.80
20284;DHT22;10301;50.832;4.080;2023-12-07T11:47:17;7.10;78.70
20284;DHT22;10301;50.832;4.080;2023-12-07T11:49:43;7.10;76.90
20284;DHT22;10301;50.832;4.080;2023-12-07T11:52:19;7.20;75.40
20284;DHT22;10301;50.832;4.080;2023-12-07T11:54:49;7.20;73.00
20284;DHT22;10301;50.832;4.080;2023-12-07T11:57:15;7.20;70.80
20284;DHT22;10301;50.832;4.080;2023-12-07T11:59:45;7.20;68.10
20284;DHT22;10301;50.832;4.080;2023-12-07T12:02:11;7.00;68.00
20284;DHT22;10301;50.832;4.080;2023-12-07T12:04:37;7.00;72.40
20284;DHT22;10301;50.832;4.080;2023-12-07T12:07:04;7.00;69.90
20284;DHT22;10301;50.832;4.080;2023-12-07T12:09:29;7.40;68.50
20284;DHT22;10301;50.832;4.080;2023-12-07T12:11:57;7.40;57.80
20284;DHT22;10301;50.832;4.080;2023-12-07T12:14:26;7.40;58.60
20284;DHT22;10301;50.832;4.080;2023-12-07T12:16:52;7.50;55.20
20284;DHT22;10301;50.832;4.080;2023-12-07T12:19:19;7.40;43.10
20284;DHT22;10301;50.832;4.080;2023-12-07T12:21:45;7.30;54.60
20284;DHT22;10301;50.832;4.080;2023-12-07T12:24:12;7.30;58.20
20284;DHT22;10301;50.832;4.080;2023-12-07T12:26:41;7.40;55.50
20284;DHT22;10301;50.832;4.080;2023-12-07T12:29:07;7.40;52.20
20284;DHT22;10301;50.832;4.080;2023-12-07T12:31:34;7.30;50.90
20284;DHT22;10301;50.832;4.080;2023-12-07T12:34:06;7.30;49.30
20284;DHT22;10301;50.832;4.080;2023-12-07T12:36:34;7.20;53.70
20284;DHT22;10301;50.832;4.080;2023-12-07T12:39:00;7.20;59.60
20284;DHT22;10301;50.832;4.080;2023-12-07T12:41:27;7.10;55.50
20284;DHT22;10301;50.832;4.080;2023-12-07T12:43:56;7.20;55.10
20284;DHT22;10301;50.832;4.080;2023-12-07T12:46:22;7.40;47.50
20284;DHT22;10301;50.832;4.080;2023-12-07T12:48:53;7.40;52.30
20284;DHT22;10301;50.832;4.080;2023-12-07T12:51:20;7.60;51.20
20284;DHT22;10301;50.832;4.080;2023-12-07T12:53:47;7.50;49.40
20284;DHT22;10301;50.832;4.080;2023-12-07T12:56:14;7.50;46.20
20284;DHT22;10301;50.832;4.080;2023-12-07T12:58:40;7.40;53.80
20284;DHT22;10301;50.832;4.080;2023-12-07T13:01:06;7.40;48.30
20284;DHT22;10301;50.832;4.080;2023-12-07T13:03:32;7.30;52.10
20284;DHT22;10301;50.832;4.080;2023-12-07T13:05:58;7.20;56.80
20284;DHT22;10301;50.832;4.080;2023-12-07T13:08:24;7.30;51.10
20284;DHT22;10301;50.832;4.080;2023-12-07T13:10:49;7.40;49.50
20284;DHT22;10301;50.832;4.080;2023-12-07T13:13:15;7.50;44.90
20284;DHT22;10301;50.832;4.080;2023-12-07T13:15:42;7.40;48.00
20284;DHT22;10301;50.832;4.080;2023-12-07T13:18:07;7.30;51.00
20284;DHT22;10301;50.832;4.080;2023-12-07T13:20:36;7.20;50.20
20284;DHT22;10301;50.832;4.080;2023-12-07T13:23:02;7.10;52.70
20284;DHT22;10301;50.832;4.080;2023-12-07T13:25:28;7.10;53.70
20284;DHT22;10301;50.832;4.080;2023-12-07T13:27:54;7.10;51.40
20284;DHT22;10301;50.832;4.080;2023-12-07T13:30:19;7.10;50.80
20284;DHT22;10301;50.832;4.080;2023-12-07T13:32:45;7.30;50.20
20284;DHT22;10301;50.832;4.080;2023-12-07T13:35:11;7.40;42.30
20284;DHT22;10301;50.832;4.080;2023-12-07T13:37:38;7.40;39.30
20284;DHT22;10301;50.832;4.080;2023-12-07T13:40:04;7.30;41.40
20284;DHT22;10301;50.832;4.080;2023-12-07T13:42:35;7.10;44.70
20284;DHT22;10301;50.832;4.080;2023-12-07T13:45:01;7.10;47.90
20284;DHT22;10301;50.832;4.080;2023-12-07T13:47:27;7.10;44.60
20284;DHT22;10301;50.832;4.080;2023-12-07T13:49:58;7.10;47.30
20284;DHT22;10301;50.832;4.080;2023-12-07T13:52:24;7.30;43.00
20284;DHT22;10301;50.832;4.080;2023-12-07T13:54:50;7.10;42.60
20284;DHT22;10301;50.832;4.080;2023-12-07T13:57:16;7.00;46.10
20284;DHT22;10301;50.832;4.080;2023-12-07T13:59:42;6.90;49.90
20284;DHT22;10301;50.832;4.080;2023-12-07T14:02:08;6.90;53.20
20284;DHT22;10301;50.832;4.080;2023-12-07T14:04:34;6.60;52.70
20284;DHT22;10301;50.832;4.080;2023-12-07T14:07:17;6.50;60.40
20284;DHT22;10301;50.832;4.080;2023-12-07T14:09:44;6.50;62.00
20284;DHT22;10301;50.832;4.080;2023-12-07T14:12:11;6.60;60.70
20284;DHT22;10301;50.832;4.080;2023-12-07T14:14:39;6.60;61.50
20284;DHT22;10301;50.832;4.080;2023-12-07T14:17:05;6.60;57.90
20284;DHT22;10301;50.832;4.080;2023-12-07T14:19:31;6.50;59.90
20284;DHT22;10301;50.832;4.080;2023-12-07T14:21:56;6.60;62.50
20284;DHT22;10301;50.832;4.080;2023-12-07T14:24:24;6.70;60.50
20284;DHT22;10301;50.832;4.080;2023-12-07T14:26:49;6.70;55.50
20284;DHT22;10301;50.832;4.080;2023-12-07T14:29:15;6.70;56.10
20284;DHT22;10301;50.832;4.080;2023-12-07T14:31:44;6.70;51.90
20284;DHT22;10301;50.832;4.080;2023-12-07T14:34:10;6.50;54.10
20284;DHT22;10301;50.832;4.080;2023-12-07T14:36:36;6.50;55.10
20284;DHT22;10301;50.832;4.080;2023-12-07T14:39:04;6.30;54.50
20284;DHT22;10301;50.832;4.080;2023-12-07T14:41:32;6.20;59.60
20284;DHT22;10301;50.832;4.080;2023-12-07T14:43:57;6.10;65.50
20284;DHT22;10301;50.832;4.080;2023-12-07T14:46:23;6.10;67.80
20284;DHT22;10301;50.832;4.080;2023-12-07T14:48:49;6.20;63.70
20284;DHT22;10301;50.832;4.080;2023-12-07T14:51:18;6.20;63.50
20284;DHT22;10301;50.832;4.080;2023-12-07T14:53:46;6.30;59.30
20284;DHT22;10301;50.832;4.080;2023-12-07T14:56:12;6.20;58.30
20284;DHT22;10301;50.832;4.080;2023-12-07T14:58:37;6.20;60.90
20284;DHT22;10301;50.832;4.080;2023-12-07T15:01:06;6.10;63.30
20284;DHT22;10301;50.832;4.080;2023-12-07T15:03:31;6.10;67.50
20284;DHT22;10301;50.832;4.080;2023-12-07T15:05:57;6.00;68.90
20284;DHT22;10301;50.832;4.080;2023-12-07T15:08:23;6.00;70.50
20284;DHT22;10301;50.832;4.080;2023-12-07T15:10:48;5.90;73.10
20284;DHT22;10301;50.832;4.080;2023-12-07T15:13:18;6.10;73.10
20284;DHT22;10301;50.832;4.080;2023-12-07T15:15:44;6.20;68.60
20284;DHT22;10301;50.832;4.080;2023-12-07T15:18:10;6.10;65.20
20284;DHT22;10301;50.832;4.080;2023-12-07T15:20:36;6.00;67.60
20284;DHT22;10301;50.832;4.080;2023-12-07T15:23:01;6.00;72.00
20284;DHT22;10301;50.832;4.080;2023-12-07T15:25:28;5.90;70.90
20284;DHT22;10301;50.832;4.080;2023-12-07T15:27:54;5.80;71.80
20284;DHT22;10301;50.832;4.080;2023-12-07T15:30:20;5.80;72.40
20284;DHT22;10301;50.832;4.080;2023-12-07T15:32:52;5.70;72.10
20284;DHT22;10301;50.832;4.080;2023-12-07T15:35:17;5.60;75.60
20284;DHT22;10301;50.832;4.080;2023-12-07T15:37:43;5.60;79.20
20284;DHT22;10301;50.832;4.080;2023-12-07T15:40:10;5.60;79.20
20284;DHT22;10301;50.832;4.080;2023-12-07T15:42:37;5.70;76.70
20284;DHT22;10301;50.832;4.080;2023-12-07T15:45:05;5.60;77.10
20284;DHT22;10301;50.832;4.080;2023-12-07T15:47:31;5.60;77.90